createdAt,value
2023-03-20T00:00:21.209Z,62.00
2023-03-20T00:01:28.490Z,62.00
2023-03-20T00:02:32.054Z,62.20
2023-03-20T00:03:36.084Z,62.10
2023-03-20T00:04:39.389Z,62.80
2023-03-20T00:05:43.191Z,62.20
2023-03-20T00:06:46.048Z,62.80
2023-03-20T00:07:51.000Z,61.90
2023-03-20T00:08:57.451Z,62.10
2023-03-20T00:10:01.221Z,62.10
2023-03-20T00:11:04.186Z,62.60
2023-03-20T00:12:08.775Z,62.20
2023-03-20T00:13:18.689Z,62.30
2023-03-20T00:14:25.287Z,61.50
2023-03-20T00:15:31.535Z,62.30
2023-03-20T00:16:38.020Z,62.40
2023-03-20T00:17:40.929Z,62.60
2023-03-20T00:18:45.133Z,62.50
2023-03-20T00:19:48.229Z,62.50
2023-03-20T00:20:53.864Z,62.80
2023-03-20T00:21:57.819Z,63.10
2023-03-20T00:23:01.518Z,63.10
2023-03-20T00:24:04.499Z,63.30
2023-03-20T00:25:11.664Z,63.40
2023-03-20T00:26:18.441Z,63.40
2023-03-20T00:27:22.381Z,63.60
2023-03-20T00:28:42.765Z,63.70
2023-03-20T00:29:45.999Z,63.90
2023-03-20T00:30:50.556Z,64.60
2023-03-20T00:31:54.360Z,64.20
2023-03-20T00:33:00.341Z,64.20
2023-03-20T00:34:05.693Z,64.30
2023-03-20T00:35:21.258Z,64.50
2023-03-20T00:36:24.507Z,64.90
2023-03-20T00:37:29.038Z,65.00
2023-03-20T00:38:33.246Z,65.00
2023-03-20T00:39:38.280Z,65.40
2023-03-20T00:40:41.377Z,65.40
2023-03-20T00:41:52.830Z,65.50
2023-03-20T00:43:00.607Z,65.60
2023-03-20T00:44:21.382Z,64.60
2023-03-20T00:45:24.516Z,65.60
2023-03-20T00:46:29.346Z,66.00
2023-03-20T00:47:41.212Z,64.60
2023-03-20T00:48:46.822Z,66.40
2023-03-20T00:49:51.838Z,66.00
2023-03-20T00:50:55.775Z,66.20
2023-03-20T00:51:58.740Z,66.20
2023-03-20T00:53:02.758Z,66.10
2023-03-20T00:54:07.235Z,66.40
2023-03-20T00:55:11.546Z,66.50
2023-03-20T00:56:34.057Z,66.50
2023-03-20T00:57:42.230Z,66.50
2023-03-20T00:58:46.546Z,66.20
2023-03-20T00:59:56.966Z,67.00
2023-03-20T01:01:03.106Z,67.10
2023-03-20T01:02:06.498Z,66.90
2023-03-20T01:03:17.026Z,66.90
2023-03-20T01:04:21.376Z,66.90
2023-03-20T01:05:26.879Z,66.90
2023-03-20T01:06:31.535Z,67.00
2023-03-20T01:07:35.450Z,67.10
2023-03-20T01:08:38.863Z,67.00
2023-03-20T01:09:43.237Z,67.20
2023-03-20T01:10:48.513Z,67.40
2023-03-20T01:11:54.046Z,67.40
2023-03-20T01:13:00.526Z,67.70
2023-03-20T01:14:06.356Z,67.70
2023-03-20T01:15:20.012Z,67.80
2023-03-20T01:16:26.674Z,67.90
2023-03-20T01:17:29.940Z,67.90
2023-03-20T01:18:34.297Z,67.90
2023-03-20T01:19:37.520Z,68.00
2023-03-20T01:20:41.562Z,68.10
2023-03-20T01:21:44.281Z,68.30
2023-03-20T01:22:48.181Z,68.50
2023-03-20T01:23:50.768Z,68.60
2023-03-20T01:24:54.407Z,68.80
2023-03-20T01:25:57.787Z,68.70
2023-03-20T01:27:04.094Z,68.80
2023-03-20T01:28:16.536Z,69.00
2023-03-20T01:29:22.696Z,68.90
2023-03-20T01:30:29.468Z,69.00
2023-03-20T01:31:33.893Z,68.90
2023-03-20T01:32:36.909Z,69.00
2023-03-20T01:33:40.902Z,69.10
2023-03-20T01:34:44.473Z,69.10
2023-03-20T01:35:49.808Z,69.10
2023-03-20T01:36:56.162Z,69.10
2023-03-20T01:38:00.005Z,69.10
2023-03-20T01:39:02.784Z,69.20
2023-03-20T01:40:18.471Z,69.10
2023-03-20T01:41:24.042Z,69.20
2023-03-20T01:42:29.247Z,67.70
2023-03-20T01:43:34.304Z,69.20
2023-03-20T01:44:39.021Z,69.20
2023-03-20T01:46:01.631Z,69.60
2023-03-20T01:47:18.658Z,69.60
2023-03-20T01:48:28.399Z,69.60
2023-03-20T01:50:09.469Z,69.60
2023-03-20T01:51:12.362Z,69.70
2023-03-20T01:52:16.036Z,69.70
2023-03-20T01:53:23.692Z,69.90
2023-03-20T01:54:40.139Z,70.20
2023-03-20T01:55:49.861Z,71.60
2023-03-20T01:57:03.682Z,70.10
2023-03-20T01:58:14.307Z,70.20
2023-03-20T01:59:23.751Z,70.40
2023-03-20T02:00:28.050Z,70.50
2023-03-20T02:01:35.816Z,70.70
2023-03-20T02:02:41.894Z,70.90
2023-03-20T02:03:50.653Z,71.00
2023-03-20T02:05:01.551Z,71.20
2023-03-20T02:06:07.465Z,69.40
2023-03-20T02:07:38.547Z,71.30
2023-03-20T02:08:50.082Z,71.30
2023-03-20T02:09:53.842Z,71.30
2023-03-20T02:11:07.316Z,71.10
2023-03-20T02:12:11.654Z,71.40
2023-03-20T02:13:17.609Z,71.40
2023-03-20T02:14:23.778Z,71.40
2023-03-20T02:15:34.604Z,71.50
2023-03-20T02:16:53.134Z,71.70
2023-03-20T02:18:16.443Z,72.20
2023-03-20T02:19:30.763Z,71.80
2023-03-20T02:20:56.619Z,71.50
2023-03-20T02:22:43.202Z,71.90
2023-03-20T02:24:34.756Z,72.00
2023-03-20T02:26:13.907Z,71.90
2023-03-20T02:27:31.388Z,71.90
2023-03-20T02:29:16.994Z,72.20
2023-03-20T02:31:21.132Z,72.30
2023-03-20T02:33:01.025Z,72.40
2023-03-20T02:34:41.122Z,72.60
2023-03-20T02:36:35.209Z,72.90
2023-03-20T02:37:59.499Z,73.10
2023-03-20T02:39:43.055Z,72.90
2023-03-20T02:40:59.663Z,73.10
2023-03-20T02:42:15.146Z,73.20
2023-03-20T02:43:26.404Z,73.30
2023-03-20T02:44:39.871Z,73.50
2023-03-20T02:45:53.052Z,73.60
2023-03-20T02:47:05.491Z,73.70
2023-03-20T02:48:17.465Z,73.90
2023-03-20T02:49:45.621Z,73.90
2023-03-20T02:50:56.728Z,74.10
2023-03-20T02:52:07.062Z,73.90
2023-03-20T02:53:26.264Z,74.00
2023-03-20T02:54:39.209Z,74.00
2023-03-20T02:55:51.487Z,74.10
2023-03-20T02:57:04.466Z,74.20
2023-03-20T02:58:17.206Z,74.40
2023-03-20T02:59:29.652Z,74.50
2023-03-20T03:00:40.271Z,74.10
2023-03-20T03:01:53.138Z,75.50
2023-03-20T03:03:07.444Z,74.40
2023-03-20T03:04:15.702Z,74.30
2023-03-20T03:05:26.815Z,74.40
2023-03-20T03:06:32.824Z,74.40
2023-03-20T03:07:39.276Z,74.40
2023-03-20T03:08:51.745Z,74.40
2023-03-20T03:10:01.633Z,74.60
2023-03-20T03:11:07.747Z,74.60
2023-03-20T03:12:18.769Z,74.80
2023-03-20T03:13:29.328Z,74.90
2023-03-20T03:14:39.326Z,75.10
2023-03-20T03:15:52.122Z,75.40
2023-03-20T03:17:01.170Z,75.80
2023-03-20T03:18:07.827Z,75.70
2023-03-20T03:19:18.392Z,75.40
2023-03-20T03:20:27.023Z,75.70
2023-03-20T03:21:34.299Z,75.70
2023-03-20T03:22:37.127Z,75.60
2023-03-20T03:23:47.888Z,75.80
2023-03-20T03:24:52.659Z,75.20
2023-03-20T03:26:01.185Z,76.00
2023-03-20T03:27:14.028Z,75.60
2023-03-20T03:28:29.294Z,75.70
2023-03-20T03:29:38.096Z,76.30
2023-03-20T03:30:41.578Z,76.10
2023-03-20T03:31:47.713Z,76.20
2023-03-20T03:33:15.609Z,76.20
2023-03-20T03:34:23.509Z,76.30
2023-03-20T03:35:26.784Z,76.70
2023-03-20T03:36:43.027Z,76.80
2023-03-20T03:37:58.851Z,76.50
2023-03-20T03:39:17.290Z,76.70
2023-03-20T03:40:28.395Z,76.80
2023-03-20T03:41:37.937Z,77.00
2023-03-20T03:42:49.601Z,77.20
2023-03-20T03:44:06.390Z,77.20
2023-03-20T03:45:17.386Z,77.30
2023-03-20T03:46:30.812Z,77.40
2023-03-20T03:47:40.485Z,77.70
2023-03-20T03:48:50.077Z,77.80
2023-03-20T03:50:05.815Z,77.80
2023-03-20T03:51:13.294Z,77.90
2023-03-20T03:52:33.659Z,78.10
2023-03-20T03:53:48.510Z,78.10
2023-03-20T03:54:59.469Z,78.30
2023-03-20T03:56:08.800Z,78.50
2023-03-20T03:57:19.539Z,77.50
2023-03-20T03:58:30.550Z,78.80
2023-03-20T03:59:38.526Z,79.10
2023-03-20T04:00:45.705Z,79.20
2023-03-20T04:01:51.900Z,79.40
2023-03-20T04:02:58.543Z,79.60
2023-03-20T04:04:07.208Z,79.70
2023-03-20T04:05:12.726Z,80.10
2023-03-20T04:06:18.213Z,79.80
2023-03-20T04:07:22.748Z,80.20
2023-03-20T04:08:25.423Z,80.20
2023-03-20T04:09:29.356Z,80.40
2023-03-20T04:10:33.451Z,80.80
2023-03-20T04:11:37.588Z,79.30
2023-03-20T04:12:42.320Z,80.90
2023-03-20T04:13:51.199Z,81.00
2023-03-20T04:14:53.994Z,81.00
2023-03-20T04:16:00.081Z,81.30
2023-03-20T04:17:04.752Z,81.30
2023-03-20T04:18:10.712Z,81.40
2023-03-20T04:19:15.473Z,81.50
2023-03-20T04:20:22.323Z,81.50
2023-03-20T04:21:25.579Z,81.50
2023-03-20T04:22:29.270Z,81.40
2023-03-20T04:23:36.413Z,81.80
2023-03-20T04:24:40.237Z,81.80
2023-03-20T04:25:44.622Z,81.90
2023-03-20T04:26:48.233Z,82.00
2023-03-20T04:27:52.259Z,82.30
2023-03-20T04:29:16.936Z,82.50
2023-03-20T04:30:44.302Z,82.90
2023-03-20T04:31:53.679Z,83.10
2023-03-20T04:33:16.555Z,83.50
2023-03-20T04:34:52.385Z,83.70
2023-03-20T04:36:22.380Z,83.80
2023-03-20T04:37:30.882Z,84.20
2023-03-20T04:38:44.632Z,84.40
2023-03-20T04:39:47.944Z,84.80
2023-03-20T04:40:53.317Z,85.00
2023-03-20T04:41:56.298Z,85.40
2023-03-20T04:43:00.448Z,85.70
2023-03-20T04:44:05.019Z,85.70
2023-03-20T04:45:10.570Z,87.10
2023-03-20T04:46:15.865Z,86.20
2023-03-20T04:47:18.609Z,86.60
2023-03-20T04:48:22.970Z,86.50
2023-03-20T04:49:25.811Z,86.50
2023-03-20T04:50:29.426Z,86.70
2023-03-20T04:51:31.874Z,87.00
2023-03-20T04:52:36.052Z,87.40
2023-03-20T04:53:38.866Z,87.70
2023-03-20T04:54:42.749Z,87.20
2023-03-20T04:55:45.938Z,88.10
2023-03-20T04:56:51.529Z,88.30
2023-03-20T04:57:56.575Z,88.50
2023-03-20T04:59:01.487Z,88.60
2023-03-20T05:00:06.408Z,88.50
2023-03-20T05:01:10.562Z,88.50
2023-03-20T05:02:15.174Z,89.30
2023-03-20T05:03:20.224Z,88.20
2023-03-20T05:04:26.032Z,88.20
2023-03-20T05:05:29.569Z,88.10
2023-03-20T05:06:33.646Z,88.00
2023-03-20T05:07:36.772Z,88.20
2023-03-20T05:08:46.359Z,88.30
2023-03-20T05:09:49.437Z,87.80
2023-03-20T05:10:54.157Z,88.40
2023-03-20T05:12:31.618Z,88.50
2023-03-20T05:13:59.862Z,89.50
2023-03-20T05:15:21.011Z,88.50
2023-03-20T05:16:54.587Z,88.60
2023-03-20T05:18:18.107Z,88.90
2023-03-20T05:19:40.846Z,89.60
2023-03-20T05:20:43.512Z,91.00
2023-03-20T05:22:01.296Z,92.90
2023-03-20T05:23:34.386Z,94.40
2023-03-20T05:24:56.192Z,93.20
2023-03-20T05:26:05.100Z,91.10
2023-03-20T05:27:27.738Z,89.40
2023-03-20T05:29:00.992Z,89.70
2023-03-20T05:30:31.514Z,89.00
2023-03-20T05:31:42.071Z,88.10
2023-03-20T05:33:14.936Z,87.50
2023-03-20T05:34:48.063Z,85.50
2023-03-20T05:35:59.787Z,84.10
2023-03-20T05:37:23.565Z,88.50
2023-03-20T05:38:48.870Z,83.30
2023-03-20T05:39:57.389Z,80.40
2023-03-20T05:41:04.791Z,79.30
2023-03-20T05:42:20.260Z,78.30
2023-03-20T05:43:27.152Z,77.50
2023-03-20T05:44:39.177Z,77.00
2023-03-20T05:45:54.575Z,76.90
2023-03-20T05:47:26.194Z,76.50
2023-03-20T05:48:48.864Z,76.20
2023-03-20T05:50:13.657Z,75.60
2023-03-20T05:51:43.047Z,74.80
2023-03-20T05:52:54.217Z,75.00
2023-03-20T05:54:07.104Z,74.60
2023-03-20T05:55:28.863Z,74.10
2023-03-20T05:56:39.147Z,73.20
2023-03-20T05:57:52.978Z,72.40
2023-03-20T05:59:16.182Z,71.50
2023-03-20T06:00:48.189Z,71.00
2023-03-20T06:02:17.503Z,70.30
2023-03-20T06:03:29.013Z,68.60
2023-03-20T06:04:46.436Z,68.40
2023-03-20T06:06:00.122Z,68.20
2023-03-20T06:07:03.226Z,68.00
2023-03-20T06:08:07.318Z,67.40
2023-03-20T06:09:11.125Z,67.20
2023-03-20T06:10:14.379Z,68.10
2023-03-20T06:11:19.191Z,67.60
2023-03-20T06:12:22.368Z,67.30
2023-03-20T06:13:26.449Z,66.60
2023-03-20T06:14:28.865Z,65.80
2023-03-20T06:15:38.208Z,64.80
2023-03-20T06:16:49.890Z,64.90
2023-03-20T06:17:54.086Z,64.70
2023-03-20T06:18:58.569Z,64.70
2023-03-20T06:20:02.301Z,64.40
2023-03-20T06:21:07.796Z,64.20
2023-03-20T06:22:10.478Z,64.10
2023-03-20T06:23:14.194Z,62.80
2023-03-20T06:24:17.279Z,64.00
2023-03-20T06:25:21.858Z,64.60
2023-03-20T06:26:24.777Z,64.40
2023-03-20T06:27:36.084Z,64.00
2023-03-20T06:28:40.080Z,63.90
2023-03-20T06:29:44.193Z,63.50
2023-03-20T06:30:54.195Z,63.30
2023-03-20T06:32:01.296Z,64.50
2023-03-20T06:33:07.318Z,62.70
2023-03-20T06:34:20.449Z,66.50
2023-03-20T06:35:24.112Z,67.80
2023-03-20T06:36:28.313Z,64.00
2023-03-20T06:37:40.691Z,62.00
2023-03-20T06:38:57.103Z,60.40
2023-03-20T06:40:02.145Z,59.80
2023-03-20T06:41:05.823Z,63.70
2023-03-20T06:42:10.364Z,61.00
2023-03-20T06:43:13.325Z,59.00
2023-03-20T06:44:24.131Z,58.10
2023-03-20T06:45:54.306Z,57.60
2023-03-20T06:47:04.310Z,57.70
2023-03-20T06:48:08.931Z,57.40
2023-03-20T06:49:12.755Z,57.30
2023-03-20T06:50:15.928Z,56.80
2023-03-20T06:51:20.169Z,57.00
2023-03-20T06:52:27.437Z,59.00
2023-03-20T06:53:54.171Z,65.40
2023-03-20T06:55:02.085Z,58.80
2023-03-20T06:56:06.621Z,58.90
2023-03-20T06:57:10.378Z,63.00
2023-03-20T06:58:12.958Z,59.10
2023-03-20T06:59:18.040Z,56.20
2023-03-20T07:00:22.144Z,55.70
2023-03-20T07:01:27.487Z,54.80
2023-03-20T07:02:31.998Z,54.80
2023-03-20T07:03:35.766Z,53.90
2023-03-20T07:04:40.257Z,53.60
2023-03-20T07:05:46.404Z,53.60
2023-03-20T07:06:49.111Z,63.90
2023-03-20T07:07:54.242Z,79.00
2023-03-20T07:08:58.307Z,78.70
2023-03-20T07:10:02.663Z,64.60
2023-03-20T07:11:07.426Z,68.60
2023-03-20T07:12:15.074Z,60.80
2023-03-20T07:13:19.137Z,61.40
2023-03-20T07:14:23.720Z,56.90
2023-03-20T07:15:35.149Z,57.20
2023-03-20T07:16:39.180Z,56.20
2023-03-20T07:17:44.198Z,56.90
2023-03-20T07:18:48.201Z,55.20
2023-03-20T07:19:55.514Z,53.80
2023-03-20T07:21:02.423Z,52.20
2023-03-20T07:22:09.385Z,49.50
2023-03-20T07:23:16.981Z,49.00
2023-03-20T07:24:19.914Z,50.00
2023-03-20T07:25:35.370Z,48.80
2023-03-20T07:26:46.103Z,47.60
2023-03-20T07:27:50.920Z,46.50
2023-03-20T07:28:57.058Z,47.60
2023-03-20T07:30:01.902Z,46.60
2023-03-20T07:31:05.305Z,46.50
2023-03-20T07:32:10.144Z,46.80
2023-03-20T07:33:19.566Z,47.00
2023-03-20T07:34:23.594Z,47.20
2023-03-20T07:35:27.329Z,47.40
2023-03-20T07:36:32.381Z,47.80
2023-03-20T07:37:35.221Z,44.90
2023-03-20T07:38:39.733Z,45.20
2023-03-20T07:39:47.408Z,44.40
2023-03-20T07:41:11.325Z,44.00
2023-03-20T07:42:18.619Z,45.10
2023-03-20T07:43:29.201Z,45.10
2023-03-20T07:44:58.720Z,45.00
2023-03-20T07:46:03.248Z,45.40
2023-03-20T07:47:07.906Z,44.80
2023-03-20T07:48:12.083Z,46.00
2023-03-20T07:49:18.638Z,45.60
2023-03-20T07:50:24.713Z,46.80
2023-03-20T07:51:28.704Z,46.30
2023-03-20T07:52:35.871Z,45.90
2023-03-20T07:53:41.888Z,46.10
2023-03-20T07:54:47.998Z,46.80
2023-03-20T07:55:51.007Z,46.90
2023-03-20T07:56:55.471Z,45.90
2023-03-20T07:57:58.510Z,46.40
2023-03-20T07:59:02.281Z,46.80
2023-03-20T08:00:07.210Z,48.10
2023-03-20T08:01:15.391Z,46.90
2023-03-20T08:02:18.890Z,46.50
2023-03-20T08:03:24.468Z,47.10
2023-03-20T08:04:32.206Z,47.50
2023-03-20T08:05:39.257Z,47.70
2023-03-20T08:06:43.950Z,48.60
2023-03-20T08:07:46.860Z,48.10
2023-03-20T08:08:52.590Z,48.70
2023-03-20T08:09:55.714Z,49.20
2023-03-20T08:10:59.346Z,54.10
2023-03-20T08:12:03.170Z,55.00
2023-03-20T08:13:06.866Z,55.50
2023-03-20T08:14:10.669Z,55.40
2023-03-20T08:15:15.191Z,56.50
2023-03-20T08:16:18.729Z,55.70
2023-03-20T08:17:22.486Z,53.20
2023-03-20T08:18:26.325Z,49.60
2023-03-20T08:19:30.696Z,48.80
2023-03-20T08:20:34.905Z,48.60
2023-03-20T08:21:37.417Z,49.10
2023-03-20T08:22:41.761Z,48.60
2023-03-20T08:23:44.141Z,48.60
2023-03-20T08:24:49.419Z,48.70
2023-03-20T08:25:54.408Z,49.40
2023-03-20T08:26:58.339Z,49.30
2023-03-20T08:28:02.900Z,49.90
2023-03-20T08:29:05.984Z,50.70
2023-03-20T08:30:10.916Z,49.50
2023-03-20T08:31:14.681Z,50.80
2023-03-20T08:32:18.360Z,51.00
2023-03-20T08:33:22.094Z,49.60
2023-03-20T08:34:26.525Z,51.00
2023-03-20T08:35:33.719Z,50.00
2023-03-20T08:36:39.682Z,49.60
2023-03-20T08:37:42.327Z,51.20
2023-03-20T08:38:46.181Z,52.30
2023-03-20T08:39:49.193Z,50.90
2023-03-20T08:40:54.771Z,52.30
2023-03-20T08:42:00.353Z,50.90
2023-03-20T08:43:06.071Z,52.10
2023-03-20T08:44:10.119Z,52.70
2023-03-20T08:45:14.120Z,50.20
2023-03-20T08:46:18.200Z,50.30
2023-03-20T08:47:20.883Z,49.10
2023-03-20T08:48:26.074Z,48.20
2023-03-20T08:49:29.188Z,48.60
2023-03-20T08:50:34.616Z,47.70
2023-03-20T08:51:38.461Z,48.00
2023-03-20T08:52:44.360Z,48.50
2023-03-20T08:53:48.784Z,48.60
2023-03-20T08:54:51.486Z,47.70
2023-03-20T08:55:56.740Z,48.60
2023-03-20T08:57:00.309Z,48.80
2023-03-20T08:58:04.120Z,53.40
2023-03-20T08:59:06.870Z,52.90
2023-03-20T09:00:14.150Z,53.30
2023-03-20T09:01:17.945Z,51.40
2023-03-20T09:02:22.021Z,52.90
2023-03-20T09:03:25.881Z,49.50
2023-03-20T09:04:29.330Z,49.50
2023-03-20T09:05:34.672Z,49.30
2023-03-20T09:06:42.095Z,49.10
2023-03-20T09:07:46.537Z,49.30
2023-03-20T09:08:50.459Z,49.70
2023-03-20T09:09:53.268Z,49.40
2023-03-20T09:10:56.963Z,48.70
2023-03-20T09:12:01.927Z,47.70
2023-03-20T09:13:15.685Z,49.70
2023-03-20T09:14:32.113Z,49.40
2023-03-20T09:15:35.120Z,48.40
2023-03-20T09:16:39.405Z,48.80
2023-03-20T09:17:43.486Z,49.00
2023-03-20T09:18:46.615Z,48.40
2023-03-20T09:19:50.378Z,48.10
2023-03-20T09:20:56.914Z,47.30
2023-03-20T09:22:01.029Z,47.70
2023-03-20T09:23:07.465Z,47.10
2023-03-20T09:24:12.148Z,47.50
2023-03-20T09:25:16.153Z,46.50
2023-03-20T09:26:19.055Z,46.10
2023-03-20T09:27:22.933Z,45.70
2023-03-20T09:28:27.234Z,47.80
2023-03-20T09:29:31.138Z,48.90
2023-03-20T09:30:34.020Z,48.40
2023-03-20T09:31:38.190Z,47.80
2023-03-20T09:32:40.850Z,48.10
2023-03-20T09:33:44.383Z,47.60
2023-03-20T09:34:48.415Z,46.50
2023-03-20T09:35:52.076Z,46.00
2023-03-20T09:36:56.810Z,46.50
2023-03-20T09:38:00.416Z,46.50
2023-03-20T09:39:04.305Z,45.80
2023-03-20T09:40:09.996Z,45.60
2023-03-20T09:41:22.103Z,44.90
2023-03-20T09:42:38.763Z,44.70
2023-03-20T09:44:02.510Z,45.00
2023-03-20T09:45:15.769Z,46.40
2023-03-20T09:46:41.325Z,46.00
2023-03-20T09:47:55.712Z,45.00
2023-03-20T09:49:09.028Z,45.30
2023-03-20T09:50:26.352Z,44.60
2023-03-20T09:51:41.262Z,45.40
2023-03-20T09:52:58.953Z,44.70
2023-03-20T09:54:09.086Z,44.90
2023-03-20T09:55:16.933Z,45.50
2023-03-20T09:56:25.268Z,45.30
2023-03-20T09:57:34.222Z,45.10
2023-03-20T09:58:43.245Z,46.60
2023-03-20T09:59:48.056Z,45.50
2023-03-20T10:00:51.969Z,47.60
2023-03-20T10:02:01.296Z,47.30
2023-03-20T10:03:06.323Z,46.10
2023-03-20T10:04:12.826Z,46.10
2023-03-20T10:05:24.174Z,47.00
2023-03-20T10:06:28.884Z,46.90
2023-03-20T10:07:32.657Z,46.80
2023-03-20T10:08:40.541Z,48.00
2023-03-20T10:09:46.104Z,46.80
2023-03-20T10:10:55.096Z,47.00
2023-03-20T10:12:16.734Z,46.60
2023-03-20T10:13:48.689Z,47.50
2023-03-20T10:15:05.199Z,47.60
2023-03-20T10:16:23.611Z,47.60
2023-03-20T10:17:45.427Z,46.60
2023-03-20T10:18:59.464Z,48.20
2023-03-20T10:20:13.872Z,47.10
2023-03-20T10:21:23.705Z,49.00
2023-03-20T10:22:33.938Z,49.10
2023-03-20T10:23:49.521Z,47.90
2023-03-20T10:25:00.342Z,48.20
2023-03-20T10:26:11.735Z,47.50
2023-03-20T10:27:26.876Z,49.20
2023-03-20T10:28:40.273Z,50.40
2023-03-20T10:30:02.573Z,50.10
2023-03-20T10:31:23.570Z,49.10
2023-03-20T10:32:37.495Z,49.50
2023-03-20T10:33:55.697Z,48.80
2023-03-20T10:35:17.863Z,49.90
2023-03-20T10:36:48.213Z,48.90
2023-03-20T10:38:14.300Z,48.10
2023-03-20T10:39:34.077Z,49.80
2023-03-20T10:40:42.273Z,49.10
2023-03-20T10:41:54.294Z,49.40
2023-03-20T10:43:02.292Z,49.80
2023-03-20T10:44:12.258Z,48.70
2023-03-20T10:45:43.679Z,49.60
2023-03-20T10:46:53.023Z,49.90
2023-03-20T10:48:00.805Z,50.20
2023-03-20T10:49:10.817Z,50.20
2023-03-20T10:50:19.962Z,49.60
2023-03-20T10:51:28.935Z,49.70
2023-03-20T10:52:36.633Z,50.10
2023-03-20T10:53:49.632Z,50.50
2023-03-20T10:54:59.304Z,49.80
2023-03-20T10:56:08.387Z,49.70
2023-03-20T10:57:19.442Z,50.20
2023-03-20T10:58:26.743Z,49.60
2023-03-20T10:59:38.926Z,49.70
2023-03-20T11:00:42.183Z,49.70
2023-03-20T11:01:46.081Z,49.70
2023-03-20T11:02:48.931Z,50.40
2023-03-20T11:03:52.709Z,51.30
2023-03-20T11:04:55.282Z,51.20
2023-03-20T11:06:09.625Z,51.50
2023-03-20T11:07:23.562Z,51.00
2023-03-20T11:08:34.570Z,51.30
2023-03-20T11:09:38.059Z,51.00
2023-03-20T11:10:43.855Z,51.50
2023-03-20T11:11:50.185Z,52.30
2023-03-20T11:12:54.108Z,52.40
2023-03-20T11:13:58.782Z,51.90
2023-03-20T11:15:14.435Z,52.40
2023-03-20T11:16:22.555Z,52.10
2023-03-20T11:17:30.789Z,52.00
2023-03-20T11:18:34.574Z,51.80
2023-03-20T11:19:40.890Z,52.40
2023-03-20T11:20:47.980Z,52.80
2023-03-20T11:21:56.389Z,52.70
2023-03-20T11:23:02.831Z,53.10
2023-03-20T11:24:07.933Z,52.30
2023-03-20T11:25:24.828Z,52.80
2023-03-20T11:26:37.546Z,52.70
2023-03-20T11:27:40.202Z,52.90
2023-03-20T11:28:51.391Z,52.80
2023-03-20T11:29:57.795Z,51.90
2023-03-20T11:31:05.986Z,52.10
2023-03-20T11:32:22.111Z,51.50
2023-03-20T11:33:29.223Z,51.00
2023-03-20T11:34:38.236Z,51.70
2023-03-20T11:35:48.552Z,51.00
2023-03-20T11:37:09.587Z,53.10
2023-03-20T11:38:16.850Z,51.90
2023-03-20T11:39:26.896Z,50.40
2023-03-20T11:40:32.685Z,51.10
2023-03-20T11:41:47.431Z,50.10
2023-03-20T11:42:54.264Z,49.90
2023-03-20T11:43:57.834Z,49.40
2023-03-20T11:45:06.852Z,49.40
2023-03-20T11:46:13.734Z,49.60
2023-03-20T11:47:30.978Z,49.30
2023-03-20T11:48:39.974Z,49.50
2023-03-20T11:49:49.706Z,50.50
2023-03-20T11:51:02.292Z,50.60
2023-03-20T11:52:14.401Z,50.60
2023-03-20T11:53:30.111Z,50.30
2023-03-20T11:54:34.206Z,50.40
2023-03-20T11:55:36.835Z,50.80
2023-03-20T11:56:54.070Z,50.80
2023-03-20T11:57:59.866Z,50.90
2023-03-20T11:59:08.609Z,50.50
2023-03-20T12:00:20.994Z,50.30
2023-03-20T12:01:24.849Z,50.10
2023-03-20T12:02:28.757Z,50.80
2023-03-20T12:03:55.694Z,50.60
2023-03-20T12:05:01.780Z,51.70
2023-03-20T12:06:08.302Z,50.80
2023-03-20T12:07:17.960Z,52.10
2023-03-20T12:08:27.621Z,51.40
2023-03-20T12:09:40.492Z,51.90
2023-03-20T12:10:54.376Z,52.60
2023-03-20T12:12:04.890Z,53.00
2023-03-20T12:13:18.345Z,52.20
2023-03-20T12:14:31.632Z,52.10
2023-03-20T12:15:38.896Z,52.50
2023-03-20T12:16:46.673Z,54.00
2023-03-20T12:17:56.786Z,53.60
2023-03-20T12:19:07.388Z,52.70
2023-03-20T12:20:25.709Z,52.60
2023-03-20T12:21:36.637Z,53.80
2023-03-20T12:22:52.848Z,54.50
2023-03-20T12:24:04.703Z,53.40
2023-03-20T12:25:21.551Z,54.10
2023-03-20T12:26:34.393Z,53.80
2023-03-20T12:27:49.185Z,54.10
2023-03-20T12:29:04.549Z,55.50
2023-03-20T12:30:16.070Z,54.00
2023-03-20T12:31:27.432Z,54.50
2023-03-20T12:32:40.708Z,54.00
2023-03-20T12:33:52.655Z,53.80
2023-03-20T12:35:00.486Z,53.10
2023-03-20T12:36:06.474Z,52.80
2023-03-20T12:37:13.952Z,53.30
2023-03-20T12:38:27.310Z,53.80
2023-03-20T12:39:41.578Z,54.60
2023-03-20T12:40:46.715Z,56.20
2023-03-20T12:42:06.889Z,57.30
2023-03-20T12:43:21.056Z,54.50
2023-03-20T12:44:45.646Z,54.50
2023-03-20T12:45:57.578Z,55.90
2023-03-20T12:47:36.688Z,55.20
2023-03-20T12:48:56.610Z,56.80
2023-03-20T12:50:19.157Z,56.20
2023-03-20T12:51:36.760Z,56.30
2023-03-20T12:52:54.131Z,55.70
2023-03-20T12:54:15.758Z,56.20
2023-03-20T12:55:39.716Z,56.50
2023-03-20T12:57:04.520Z,56.40
2023-03-20T12:58:24.954Z,55.90
2023-03-20T12:59:40.079Z,55.40
2023-03-20T13:00:49.880Z,56.20
2023-03-20T13:01:59.773Z,56.10
2023-03-20T13:03:21.487Z,55.80
2023-03-20T13:04:50.138Z,56.00
2023-03-20T13:06:04.528Z,55.10
2023-03-20T13:07:19.116Z,56.90
2023-03-20T13:08:49.494Z,55.00
2023-03-20T13:10:11.592Z,55.80
2023-03-20T13:11:25.321Z,57.30
2023-03-20T13:12:42.426Z,57.70
2023-03-20T13:13:54.283Z,57.10
2023-03-20T13:15:14.864Z,58.80
2023-03-20T13:16:35.490Z,57.70
2023-03-20T13:17:49.704Z,58.70
2023-03-20T13:19:03.024Z,59.10
2023-03-20T13:20:23.396Z,60.00
2023-03-20T13:21:36.749Z,59.50
2023-03-20T13:22:56.233Z,59.40
2023-03-20T13:24:15.384Z,60.70
2023-03-20T13:25:35.642Z,61.70
2023-03-20T13:26:52.008Z,62.70
2023-03-20T14:19:29.139Z,91.60
2023-03-20T14:20:36.672Z,91.80
2023-03-20T14:21:39.787Z,91.10
2023-03-20T14:22:44.836Z,92.30
2023-03-20T14:23:51.850Z,93.00
2023-03-20T14:25:02.588Z,93.10
2023-03-20T14:26:10.786Z,93.70
2023-03-20T14:27:36.772Z,94.10
2023-03-20T14:28:54.816Z,93.80
2023-03-20T14:30:17.228Z,92.50
2023-03-20T14:31:34.205Z,92.40
2023-03-20T14:32:54.271Z,93.40
2023-03-20T14:34:14.933Z,92.70
2023-03-20T14:35:26.064Z,92.80
2023-03-20T14:36:46.506Z,93.10
2023-03-20T14:38:19.382Z,92.70
2023-03-20T14:39:45.010Z,91.90
2023-03-20T14:41:00.535Z,92.40
2023-03-20T14:42:28.948Z,92.70
2023-03-20T14:43:58.737Z,91.70
2023-03-20T14:45:41.047Z,91.80
2023-03-20T14:46:54.014Z,92.90
2023-03-20T14:48:07.092Z,93.10
2023-03-20T14:49:32.778Z,93.70
2023-03-20T14:50:42.940Z,93.80
2023-03-20T14:51:52.575Z,94.60
2023-03-20T14:53:14.175Z,94.20
2023-03-20T14:54:28.384Z,94.40
2023-03-20T14:55:35.604Z,95.40
2023-03-20T14:56:40.773Z,95.60
2023-03-20T14:57:56.061Z,96.30
2023-03-20T14:59:06.731Z,96.40
2023-03-20T15:00:22.004Z,96.70
2023-03-20T15:01:42.830Z,96.90
2023-03-20T15:02:50.000Z,97.20
2023-03-20T15:03:58.896Z,97.40
2023-03-20T15:05:03.382Z,97.90
2023-03-20T15:06:09.509Z,97.70
2023-03-20T15:07:17.939Z,97.70
2023-03-20T15:08:25.888Z,97.70
2023-03-20T15:09:33.993Z,97.90
2023-03-20T15:10:47.323Z,97.90
2023-03-20T15:11:51.146Z,98.00
2023-03-20T15:12:58.253Z,98.20
2023-03-20T15:14:07.086Z,98.20
2023-03-20T15:15:26.914Z,98.40
2023-03-20T15:16:32.830Z,98.40
2023-03-20T15:17:40.560Z,98.60
2023-03-20T15:18:45.489Z,98.50
2023-03-20T15:19:51.745Z,98.60
2023-03-20T15:20:57.853Z,98.80
2023-03-20T15:22:01.988Z,98.90
2023-03-20T15:23:06.119Z,98.80
2023-03-20T15:24:18.505Z,99.00
2023-03-20T15:25:24.830Z,99.20
2023-03-20T15:26:30.684Z,98.90
2023-03-20T15:27:34.052Z,98.80
2023-03-20T15:28:40.184Z,98.70
2023-03-20T15:56:24.571Z,98.70
2023-03-20T16:03:04.813Z,99.10
2023-03-20T16:11:59.502Z,99.90
2023-03-20T16:13:05.170Z,99.90
2023-03-20T19:39:15.362Z,99.90
2023-03-20T19:45:06.018Z,99.90
2023-03-20T19:46:20.361Z,99.90
2023-03-20T19:47:29.480Z,99.90
2023-03-20T19:48:49.794Z,99.90
2023-03-20T19:49:55.796Z,99.90
2023-03-20T19:51:00.276Z,99.90
2023-03-20T19:52:05.683Z,99.90
2023-03-20T19:53:11.791Z,99.90
2023-03-20T19:54:14.747Z,99.90
2023-03-20T19:55:18.602Z,99.90
2023-03-20T19:56:24.595Z,99.90
2023-03-20T19:57:28.993Z,99.90
2023-03-20T19:58:33.201Z,99.90
2023-03-20T19:59:36.181Z,99.90
2023-03-20T20:00:58.976Z,99.90
2023-03-20T20:02:05.948Z,99.90
2023-03-20T20:03:18.891Z,99.90
2023-03-20T20:32:15.074Z,99.90